sensor_id;sensor_type;location;lat;lon;timestamp;pressure;altitude;pressure_sealevel;temperature;humidity
39823;BME280;25499;53.958;10.970;2022-09-21T05:41:41;102484.63;;;5.72;97.27
39823;BME280;25499;53.958;10.970;2022-09-21T05:44:10;102487.69;;;5.83;97.53
39823;BME280;25499;53.958;10.970;2022-09-21T05:46:39;102486.09;;;6.05;97.50
39823;BME280;25499;53.958;10.970;2022-09-21T05:49:16;102486.81;;;6.02;97.15
39823;BME280;25499;53.958;10.970;2022-09-21T05:52:26;102488.53;;;6.42;97.09
39823;BME280;25499;53.958;10.970;2022-09-21T05:54:43;102488.41;;;6.81;97.27
39823;BME280;25499;53.958;10.970;2022-09-21T05:59:54;102487.03;;;6.68;97.07
39823;BME280;25499;53.958;10.970;2022-09-21T06:05:14;102499.44;;;6.98;97.42
39823;BME280;25499;53.958;10.970;2022-09-21T06:07:39;102502.50;;;7.32;98.38
39823;BME280;25499;53.958;10.970;2022-09-21T06:10:07;102504.97;;;7.75;98.94
39823;BME280;25499;53.958;10.970;2022-09-21T06:15:11;102511.63;;;8.15;100.00
39823;BME280;25499;53.958;10.970;2022-09-21T06:17:36;102511.16;;;8.27;100.00
39823;BME280;25499;53.958;10.970;2022-09-21T06:20:02;102501.72;;;8.29;100.00
39823;BME280;25499;53.958;10.970;2022-09-21T06:22:27;102509.41;;;8.52;100.00
39823;BME280;25499;53.958;10.970;2022-09-21T06:24:53;102512.97;;;8.80;100.00
39823;BME280;25499;53.958;10.970;2022-09-21T06:27:18;102520.81;;;9.08;100.00
39823;BME280;25499;53.958;10.970;2022-09-21T06:29:45;102516.09;;;9.24;100.00
39823;BME280;25499;53.958;10.970;2022-09-21T06:32:11;102521.25;;;9.51;100.00
39823;BME280;25499;53.958;10.970;2022-09-21T06:34:42;102525.72;;;9.57;100.00
39823;BME280;25499;53.958;10.970;2022-09-21T06:37:14;102521.44;;;9.59;100.00
39823;BME280;25499;53.958;10.970;2022-09-21T06:39:40;102522.03;;;9.79;100.00
39823;BME280;25499;53.958;10.970;2022-09-21T06:42:07;102523.28;;;9.92;100.00
39823;BME280;25499;53.958;10.970;2022-09-21T06:44:35;102528.09;;;10.09;100.00
39823;BME280;25499;53.958;10.970;2022-09-21T06:47:06;102522.94;;;10.41;100.00
39823;BME280;25499;53.958;10.970;2022-09-21T06:49:38;102527.69;;;10.58;100.00
39823;BME280;25499;53.958;10.970;2022-09-21T06:52:06;102526.22;;;10.68;100.00
39823;BME280;25499;53.958;10.970;2022-09-21T06:54:32;102518.44;;;10.71;100.00
39823;BME280;25499;53.958;10.970;2022-09-21T06:56:58;102528.38;;;10.86;100.00
39823;BME280;25499;53.958;10.970;2022-09-21T06:59:24;102535.81;;;11.05;100.00
39823;BME280;25499;53.958;10.970;2022-09-21T07:01:57;102530.00;;;11.17;99.83
39823;BME280;25499;53.958;10.970;2022-09-21T07:04:26;102538.22;;;11.34;99.40
39823;BME280;25499;53.958;10.970;2022-09-21T07:06:53;102533.25;;;11.46;98.86
39823;BME280;25499;53.958;10.970;2022-09-21T07:09:22;102541.63;;;11.72;97.88
39823;BME280;25499;53.958;10.970;2022-09-21T07:11:48;102536.63;;;11.82;98.32
39823;BME280;25499;53.958;10.970;2022-09-21T07:14:14;102543.94;;;11.98;97.88
39823;BME280;25499;53.958;10.970;2022-09-21T07:16:39;102547.13;;;12.27;96.21
39823;BME280;25499;53.958;10.970;2022-09-21T07:19:06;102545.06;;;12.11;94.77
39823;BME280;25499;53.958;10.970;2022-09-21T07:21:39;102553.28;;;12.31;94.39
39823;BME280;25499;53.958;10.970;2022-09-21T07:24:05;102543.31;;;12.11;93.96
39823;BME280;25499;53.958;10.970;2022-09-21T07:26:30;102553.25;;;12.29;94.25
39823;BME280;25499;53.958;10.970;2022-09-21T07:28:56;102551.88;;;12.50;93.84
39823;BME280;25499;53.958;10.970;2022-09-21T07:31:22;102563.25;;;12.52;93.99
39823;BME280;25499;53.958;10.970;2022-09-21T07:33:47;102555.56;;;12.60;92.41
39823;BME280;25499;53.958;10.970;2022-09-21T07:36:15;102560.56;;;12.99;91.91
39823;BME280;25499;53.958;10.970;2022-09-21T07:38:43;102564.38;;;13.20;91.30
39823;BME280;25499;53.958;10.970;2022-09-21T07:41:10;102560.56;;;13.57;90.25
39823;BME280;25499;53.958;10.970;2022-09-21T07:43:37;102562.31;;;13.57;88.73
39823;BME280;25499;53.958;10.970;2022-09-21T07:46:05;102565.28;;;13.82;87.73
39823;BME280;25499;53.958;10.970;2022-09-21T07:48:35;102559.59;;;14.20;86.70
39823;BME280;25499;53.958;10.970;2022-09-21T07:51:07;102560.00;;;13.78;85.62
39823;BME280;25499;53.958;10.970;2022-09-21T07:53:41;102555.50;;;13.68;86.79
39823;BME280;25499;53.958;10.970;2022-09-21T07:56:11;102560.69;;;13.65;87.36
39823;BME280;25499;53.958;10.970;2022-09-21T07:58:46;102577.84;;;14.10;85.80
39823;BME280;25499;53.958;10.970;2022-09-21T08:01:40;102562.03;;;14.03;85.03
39823;BME280;25499;53.958;10.970;2022-09-21T08:04:26;102565.66;;;14.12;84.42
39823;BME280;25499;53.958;10.970;2022-09-21T08:06:51;102566.06;;;14.54;84.23
39823;BME280;25499;53.958;10.970;2022-09-21T08:09:24;102561.97;;;14.79;82.19
39823;BME280;25499;53.958;10.970;2022-09-21T08:11:56;102558.63;;;15.02;81.75
39823;BME280;25499;53.958;10.970;2022-09-21T08:14:41;102562.97;;;14.94;81.28
39823;BME280;25499;53.958;10.970;2022-09-21T08:17:22;102562.88;;;14.84;80.09
39823;BME280;25499;53.958;10.970;2022-09-21T08:19:53;102556.84;;;14.96;79.38
39823;BME280;25499;53.958;10.970;2022-09-21T08:22:23;102567.44;;;15.05;79.35
39823;BME280;25499;53.958;10.970;2022-09-21T08:24:48;102559.53;;;15.01;78.08
39823;BME280;25499;53.958;10.970;2022-09-21T08:27:17;102558.66;;;15.05;78.53
39823;BME280;25499;53.958;10.970;2022-09-21T08:29:49;102559.66;;;15.19;78.73
39823;BME280;25499;53.958;10.970;2022-09-21T08:32:20;102559.63;;;15.16;77.95
39823;BME280;25499;53.958;10.970;2022-09-21T08:34:45;102567.03;;;15.82;78.09
39823;BME280;25499;53.958;10.970;2022-09-21T08:37:14;102565.31;;;15.84;77.30
39823;BME280;25499;53.958;10.970;2022-09-21T08:39:59;102563.41;;;15.61;76.57
39823;BME280;25499;53.958;10.970;2022-09-21T08:42:34;102557.31;;;15.67;75.21
39823;BME280;25499;53.958;10.970;2022-09-21T08:45:14;102553.91;;;15.87;73.36
39823;BME280;25499;53.958;10.970;2022-09-21T08:47:52;102549.59;;;16.01;72.83
39823;BME280;25499;53.958;10.970;2022-09-21T08:52:57;102550.56;;;16.46;69.82
39823;BME280;25499;53.958;10.970;2022-09-21T08:55:26;102544.44;;;16.49;69.15
39823;BME280;25499;53.958;10.970;2022-09-21T08:57:52;102539.19;;;16.61;67.98
39823;BME280;25499;53.958;10.970;2022-09-21T09:00:20;102541.81;;;16.75;67.93
39823;BME280;25499;53.958;10.970;2022-09-21T09:03:20;102541.84;;;16.72;67.13
39823;BME280;25499;53.958;10.970;2022-09-21T09:06:03;102537.44;;;16.82;66.22
39823;BME280;25499;53.958;10.970;2022-09-21T09:08:49;102557.59;;;17.38;68.90
39823;BME280;25499;53.958;10.970;2022-09-21T09:20:04;102539.00;;;17.78;65.12
39823;BME280;25499;53.958;10.970;2022-09-21T09:22:38;102535.47;;;17.85;64.07
39823;BME280;25499;53.958;10.970;2022-09-21T09:25:15;102551.94;;;18.32;63.63
39823;BME280;25499;53.958;10.970;2022-09-21T09:27:49;102546.38;;;18.69;62.37
39823;BME280;25499;53.958;10.970;2022-09-21T09:30:25;102549.00;;;18.71;63.64
39823;BME280;25499;53.958;10.970;2022-09-21T09:35:34;102530.09;;;18.10;59.22
39823;BME280;25499;53.958;10.970;2022-09-21T09:50:00;102532.81;;;19.14;58.50
39823;BME280;25499;53.958;10.970;2022-09-21T09:52:29;102530.91;;;19.28;58.64
39823;BME280;25499;53.958;10.970;2022-09-21T09:54:57;102534.72;;;18.99;59.06
39823;BME280;25499;53.958;10.970;2022-09-21T09:57:45;102528.13;;;19.39;56.97
39823;BME280;25499;53.958;10.970;2022-09-21T10:00:17;102536.38;;;19.10;57.70
39823;BME280;25499;53.958;10.970;2022-09-21T10:02:54;102523.31;;;19.73;55.84
39823;BME280;25499;53.958;10.970;2022-09-21T10:05:32;102521.78;;;20.22;53.08
39823;BME280;25499;53.958;10.970;2022-09-21T10:08:01;102532.75;;;21.55;52.05
39823;BME280;25499;53.958;10.970;2022-09-21T10:10:36;102523.31;;;22.21;49.76
39823;BME280;25499;53.958;10.970;2022-09-21T10:15:51;102510.00;;;23.90;44.76
39823;BME280;25499;53.958;10.970;2022-09-21T10:21:08;102497.41;;;24.77;41.36
39823;BME280;25499;53.958;10.970;2022-09-21T10:23:47;102486.63;;;23.70;42.76
39823;BME280;25499;53.958;10.970;2022-09-21T10:26:14;102489.75;;;24.13;42.77
39823;BME280;25499;53.958;10.970;2022-09-21T10:29:00;102493.88;;;24.50;41.94
39823;BME280;25499;53.958;10.970;2022-09-21T10:31:32;102482.75;;;23.80;41.78
39823;BME280;25499;53.958;10.970;2022-09-21T10:34:15;102475.06;;;24.28;38.22
39823;BME280;25499;53.958;10.970;2022-09-21T10:36:51;102468.84;;;24.29;34.55
39823;BME280;25499;53.958;10.970;2022-09-21T10:42:11;102489.44;;;25.73;37.53
39823;BME280;25499;53.958;10.970;2022-09-21T10:44:46;102473.25;;;25.07;38.00
39823;BME280;25499;53.958;10.970;2022-09-21T10:47:24;102478.94;;;25.68;38.96
39823;BME280;25499;53.958;10.970;2022-09-21T10:49:59;102472.47;;;25.28;38.84
39823;BME280;25499;53.958;10.970;2022-09-21T10:52:49;102466.66;;;24.40;40.52
39823;BME280;25499;53.958;10.970;2022-09-21T10:55:22;102472.81;;;24.69;40.64
39823;BME280;25499;53.958;10.970;2022-09-21T10:58:08;102473.63;;;25.45;40.02
39823;BME280;25499;53.958;10.970;2022-09-21T11:02:01;102477.75;;;27.24;38.84
39823;BME280;25499;53.958;10.970;2022-09-21T11:04:10;102460.94;;;27.02;36.65
39823;BME280;25499;53.958;10.970;2022-09-21T11:07:13;102479.78;;;27.95;37.95
39823;BME280;25499;53.958;10.970;2022-09-21T11:16:03;102433.00;;;25.38;37.88
39823;BME280;25499;53.958;10.970;2022-09-21T11:24:58;102458.06;;;26.24;37.98
39823;BME280;25499;53.958;10.970;2022-09-21T11:27:36;102452.47;;;26.71;36.76
39823;BME280;25499;53.958;10.970;2022-09-21T11:30:16;102464.03;;;27.51;35.66
39823;BME280;25499;53.958;10.970;2022-09-21T11:33:21;102447.16;;;27.11;35.51
39823;BME280;25499;53.958;10.970;2022-09-21T11:47:40;102456.59;;;27.39;35.44
39823;BME280;25499;53.958;10.970;2022-09-21T11:50:14;102432.81;;;26.31;33.79
39823;BME280;25499;53.958;10.970;2022-09-21T11:56:08;102422.75;;;26.38;33.07
39823;BME280;25499;53.958;10.970;2022-09-21T11:59:17;102432.88;;;26.09;34.39
39823;BME280;25499;53.958;10.970;2022-09-21T12:05:02;102431.44;;;26.00;36.71
39823;BME280;25499;53.958;10.970;2022-09-21T12:07:45;102431.22;;;25.61;36.75
39823;BME280;25499;53.958;10.970;2022-09-21T12:10:54;102415.13;;;23.89;38.36
39823;BME280;25499;53.958;10.970;2022-09-21T12:17:20;102435.66;;;23.56;41.22
39823;BME280;25499;53.958;10.970;2022-09-21T12:22:26;102420.28;;;23.06;40.37
39823;BME280;25499;53.958;10.970;2022-09-21T12:24:56;102419.06;;;22.52;40.48
39823;BME280;25499;53.958;10.970;2022-09-21T12:28:06;102410.22;;;22.53;40.62
39823;BME280;25499;53.958;10.970;2022-09-21T12:30:20;102413.00;;;22.81;39.46
39823;BME280;25499;53.958;10.970;2022-09-21T12:33:03;102405.47;;;21.94;40.78
39823;BME280;25499;53.958;10.970;2022-09-21T12:35:42;102400.03;;;21.63;42.53
39823;BME280;25499;53.958;10.970;2022-09-21T12:40:52;102397.16;;;19.88;44.80
39823;BME280;25499;53.958;10.970;2022-09-21T12:43:33;102394.50;;;19.23;46.08
39823;BME280;25499;53.958;10.970;2022-09-21T12:48:37;102391.03;;;18.37;47.94
39823;BME280;25499;53.958;10.970;2022-09-21T12:51:24;102402.72;;;18.06;49.66
39823;BME280;25499;53.958;10.970;2022-09-21T12:53:54;102406.16;;;18.18;49.66
39823;BME280;25499;53.958;10.970;2022-09-21T12:56:42;102406.22;;;18.05;50.82
39823;BME280;25499;53.958;10.970;2022-09-21T12:59:35;102409.81;;;17.97;50.24
39823;BME280;25499;53.958;10.970;2022-09-21T13:02:23;102413.16;;;18.16;50.49
39823;BME280;25499;53.958;10.970;2022-09-21T13:05:06;102416.56;;;18.35;50.15
39823;BME280;25499;53.958;10.970;2022-09-21T13:12:43;102415.97;;;17.96;51.17
39823;BME280;25499;53.958;10.970;2022-09-21T13:15:23;102412.69;;;17.57;52.24
39823;BME280;25499;53.958;10.970;2022-09-21T13:20:46;102413.56;;;17.48;53.26
39823;BME280;25499;53.958;10.970;2022-09-21T13:23:17;102412.78;;;17.30;54.45
39823;BME280;25499;53.958;10.970;2022-09-21T13:25:57;102417.91;;;17.58;53.54
39823;BME280;25499;53.958;10.970;2022-09-21T13:34:04;102407.38;;;17.61;52.57
39823;BME280;25499;53.958;10.970;2022-09-21T13:36:34;102412.69;;;17.57;53.74
39823;BME280;25499;53.958;10.970;2022-09-21T13:39:18;102404.69;;;17.72;52.59
39823;BME280;25499;53.958;10.970;2022-09-21T13:41:44;102405.56;;;17.71;52.27
39823;BME280;25499;53.958;10.970;2022-09-21T13:47:11;102392.50;;;17.46;51.26
39823;BME280;25499;53.958;10.970;2022-09-21T13:49:47;102398.78;;;17.21;52.01
39823;BME280;25499;53.958;10.970;2022-09-21T13:59:47;102399.59;;;17.40;51.47
39823;BME280;25499;53.958;10.970;2022-09-21T14:04:49;102404.97;;;17.07;52.44
39823;BME280;25499;53.958;10.970;2022-09-21T14:07:16;102391.81;;;17.10;52.30
39823;BME280;25499;53.958;10.970;2022-09-21T14:09:53;102385.75;;;16.91;52.46
39823;BME280;25499;53.958;10.970;2022-09-21T14:12:23;102384.03;;;16.86;52.53
39823;BME280;25499;53.958;10.970;2022-09-21T14:17:39;102378.81;;;16.50;53.32
39823;BME280;25499;53.958;10.970;2022-09-21T14:20:27;102384.94;;;16.37;54.69
39823;BME280;25499;53.958;10.970;2022-09-21T14:28:16;102395.41;;;16.75;54.18
39823;BME280;25499;53.958;10.970;2022-09-21T14:30:50;102402.44;;;16.73;56.04
39823;BME280;25499;53.958;10.970;2022-09-21T14:33:23;102384.03;;;16.70;54.47
39823;BME280;25499;53.958;10.970;2022-09-21T14:35:51;102394.50;;;16.75;55.49
39823;BME280;25499;53.958;10.970;2022-09-21T14:40:50;102392.75;;;16.80;55.25
39823;BME280;25499;53.958;10.970;2022-09-21T14:43:24;102379.66;;;16.51;55.00
39823;BME280;25499;53.958;10.970;2022-09-21T14:48:37;102384.94;;;16.57;56.56
39823;BME280;25499;53.958;10.970;2022-09-21T14:54:06;102377.03;;;16.52;55.79
39823;BME280;25499;53.958;10.970;2022-09-21T15:02:01;102367.44;;;16.31;55.43
39823;BME280;25499;53.958;10.970;2022-09-21T15:04:46;102371.81;;;16.17;57.15
39823;BME280;25499;53.958;10.970;2022-09-21T15:10:52;102376.22;;;16.21;57.13
39823;BME280;25499;53.958;10.970;2022-09-21T15:21:52;102360.41;;;16.44;54.87
39823;BME280;25499;53.958;10.970;2022-09-21T15:24:21;102352.53;;;16.33;55.01
39823;BME280;25499;53.958;10.970;2022-09-21T15:26:48;102345.53;;;16.15;55.17
39823;BME280;25499;53.958;10.970;2022-09-21T15:29:27;102351.69;;;16.13;54.94
39823;BME280;25499;53.958;10.970;2022-09-21T15:31:53;102352.56;;;16.02;56.00
39823;BME280;25499;53.958;10.970;2022-09-21T15:34:20;102342.94;;;16.09;54.63
39823;BME280;25499;53.958;10.970;2022-09-21T15:36:46;102347.28;;;15.93;55.59
39823;BME280;25499;53.958;10.970;2022-09-21T15:39:30;102357.81;;;16.10;55.52
39823;BME280;25499;53.958;10.970;2022-09-21T15:42:19;102347.28;;;15.90;56.26
39823;BME280;25499;53.958;10.970;2022-09-21T15:44:47;102355.19;;;15.96;56.46
39823;BME280;25499;53.958;10.970;2022-09-21T15:47:21;102355.16;;;15.95;55.86
39823;BME280;25499;53.958;10.970;2022-09-21T15:49:46;102357.81;;;15.99;56.30
39823;BME280;25499;53.958;10.970;2022-09-21T15:52:24;102354.31;;;15.83;56.11
39823;BME280;25499;53.958;10.970;2022-09-21T15:54:57;102356.03;;;15.83;56.81
39823;BME280;25499;53.958;10.970;2022-09-21T15:57:31;102356.06;;;15.78;57.07
39823;BME280;25499;53.958;10.970;2022-09-21T15:59:59;102361.22;;;15.66;58.14
39823;BME280;25499;53.958;10.970;2022-09-21T16:02:33;102357.72;;;15.53;58.91
39823;BME280;25499;53.958;10.970;2022-09-21T16:04:59;102356.84;;;15.45;59.24
39823;BME280;25499;53.958;10.970;2022-09-21T16:07:34;102363.81;;;15.37;59.74
39823;BME280;25499;53.958;10.970;2022-09-21T16:10:01;102362.94;;;15.45;59.17
39823;BME280;25499;53.958;10.970;2022-09-21T16:12:41;102363.84;;;15.44;58.91
39823;BME280;25499;53.958;10.970;2022-09-21T16:15:24;102353.28;;;15.24;58.14
39823;BME280;25499;53.958;10.970;2022-09-21T16:18:49;102355.88;;;15.18;58.87
39823;BME280;25499;53.958;10.970;2022-09-21T16:23:46;102364.66;;;15.37;59.51
39823;BME280;25499;53.958;10.970;2022-09-21T16:26:25;102362.94;;;15.38;58.93
39823;BME280;25499;53.958;10.970;2022-09-21T16:28:57;102358.47;;;15.10;59.80
39823;BME280;25499;53.958;10.970;2022-09-21T16:31:31;102359.31;;;14.99;60.73
39823;BME280;25499;53.958;10.970;2022-09-21T16:34:03;102368.00;;;14.93;61.11
39823;BME280;25499;53.958;10.970;2022-09-21T16:36:36;102375.88;;;14.95;62.16
39823;BME280;25499;53.958;10.970;2022-09-21T16:39:03;102368.69;;;14.63;62.36
39823;BME280;25499;53.958;10.970;2022-09-21T16:41:38;102375.75;;;14.68;62.51
39823;BME280;25499;53.958;10.970;2022-09-21T16:44:09;102373.78;;;14.44;63.60
39823;BME280;25499;53.958;10.970;2022-09-21T16:46:35;102380.88;;;14.54;63.72
39823;BME280;25499;53.958;10.970;2022-09-21T16:49:00;102386.94;;;14.50;64.46
39823;BME280;25499;53.958;10.970;2022-09-21T16:51:26;102386.88;;;14.40;64.88
39823;BME280;25499;53.958;10.970;2022-09-21T16:53:53;102389.31;;;14.16;65.38
39823;BME280;25499;53.958;10.970;2022-09-21T16:56:19;102386.72;;;14.21;65.50
39823;BME280;25499;53.958;10.970;2022-09-21T16:58:45;102397.19;;;14.20;65.57
39823;BME280;25499;53.958;10.970;2022-09-21T17:01:13;102385.72;;;14.08;65.89
39823;BME280;25499;53.958;10.970;2022-09-21T17:03:40;102390.94;;;14.05;66.12
39823;BME280;25499;53.958;10.970;2022-09-21T17:06:19;102399.59;;;13.98;66.87
39823;BME280;25499;53.958;10.970;2022-09-21T17:08:46;102399.44;;;13.76;67.46
39823;BME280;25499;53.958;10.970;2022-09-21T17:11:16;102395.69;;;13.53;68.36
39823;BME280;25499;53.958;10.970;2022-09-21T17:13:53;102415.97;;;13.75;67.98
39823;BME280;25499;53.958;10.970;2022-09-21T17:16:27;102412.34;;;13.62;67.92
39823;BME280;25499;53.958;10.970;2022-09-21T17:18:53;102407.41;;;13.90;67.98
39823;BME280;25499;53.958;10.970;2022-09-21T17:21:18;102405.63;;;13.88;67.92
39823;BME280;25499;53.958;10.970;2022-09-21T17:23:43;102400.81;;;13.45;68.67
39823;BME280;25499;53.958;10.970;2022-09-21T17:26:14;102398.84;;;13.30;69.34
39823;BME280;25499;53.958;10.970;2022-09-21T17:28:45;102406.69;;;13.30;69.20
39823;BME280;25499;53.958;10.970;2022-09-21T17:31:12;102397.13;;;13.31;68.38
39823;BME280;25499;53.958;10.970;2022-09-21T17:33:39;102400.38;;;13.13;69.49
39823;BME280;25499;53.958;10.970;2022-09-21T17:36:04;102405.53;;;13.08;69.40
39823;BME280;25499;53.958;10.970;2022-09-21T17:38:30;102411.16;;;13.34;70.00
39823;BME280;25499;53.958;10.970;2022-09-21T17:40:57;102404.50;;;12.94;70.31
39823;BME280;25499;53.958;10.970;2022-09-21T17:46:06;102405.50;;;12.45;72.94
39823;BME280;25499;53.958;10.970;2022-09-21T17:48:37;102390.84;;;12.55;72.52
39823;BME280;25499;53.958;10.970;2022-09-21T17:51:03;102401.38;;;12.58;72.25
39823;BME280;25499;53.958;10.970;2022-09-21T17:53:29;102402.16;;;12.53;72.33
39823;BME280;25499;53.958;10.970;2022-09-21T17:56:22;102411.56;;;12.41;73.44
39823;BME280;25499;53.958;10.970;2022-09-21T17:59:03;102417.50;;;12.32;74.42
39823;BME280;25499;53.958;10.970;2022-09-21T18:01:37;102418.50;;;12.39;74.48
39823;BME280;25499;53.958;10.970;2022-09-21T18:04:05;102416.31;;;12.15;75.72
39823;BME280;25499;53.958;10.970;2022-09-21T18:06:31;102412.34;;;11.88;76.14
39823;BME280;25499;53.958;10.970;2022-09-21T18:08:58;102406.16;;;11.82;76.61
39823;BME280;25499;53.958;10.970;2022-09-21T18:24:57;102410.84;;;11.55;78.20
39823;BME280;25499;53.958;10.970;2022-09-21T18:27:24;102414.72;;;11.76;78.10
39823;BME280;25499;53.958;10.970;2022-09-21T18:29:49;102421.94;;;11.89;77.06
39823;BME280;25499;53.958;10.970;2022-09-21T18:35:25;102412.22;;;11.82;78.40
39823;BME280;25499;53.958;10.970;2022-09-21T18:38:16;102419.38;;;11.91;79.26
39823;BME280;25499;53.958;10.970;2022-09-21T18:46:16;102418.44;;;11.89;79.79
39823;BME280;25499;53.958;10.970;2022-09-21T18:51:55;102429.34;;;11.66;81.16
39823;BME280;25499;53.958;10.970;2022-09-21T18:54:23;102427.94;;;11.85;81.20
39823;BME280;25499;53.958;10.970;2022-09-21T18:56:49;102429.53;;;11.77;82.31
39823;BME280;25499;53.958;10.970;2022-09-21T18:59:15;102422.75;;;11.87;82.63
39823;BME280;25499;53.958;10.970;2022-09-21T19:01:42;102428.56;;;11.72;82.89
39823;BME280;25499;53.958;10.970;2022-09-21T19:04:08;102417.84;;;11.56;83.00
39823;BME280;25499;53.958;10.970;2022-09-21T19:09:18;102417.84;;;11.56;84.02
39823;BME280;25499;53.958;10.970;2022-09-21T19:17:03;102421.28;;;11.55;83.49
39823;BME280;25499;53.958;10.970;2022-09-21T19:19:37;102418.94;;;11.68;82.69
39823;BME280;25499;53.958;10.970;2022-09-21T19:22:14;102427.56;;;11.65;83.11
39823;BME280;25499;53.958;10.970;2022-09-21T19:24:52;102424.75;;;11.54;82.88
39823;BME280;25499;53.958;10.970;2022-09-21T19:27:48;102428.41;;;11.63;83.67
39823;BME280;25499;53.958;10.970;2022-09-21T19:30:16;102436.25;;;11.66;83.74
39823;BME280;25499;53.958;10.970;2022-09-21T19:32:47;102434.53;;;11.65;83.72
39823;BME280;25499;53.958;10.970;2022-09-21T19:35:26;102433.63;;;11.63;83.63
39823;BME280;25499;53.958;10.970;2022-09-21T19:37:53;102435.84;;;11.88;83.59
39823;BME280;25499;53.958;10.970;2022-09-21T19:40:23;102433.16;;;11.84;83.85
39823;BME280;25499;53.958;10.970;2022-09-21T19:48:02;102439.03;;;11.73;84.74
39823;BME280;25499;53.958;10.970;2022-09-21T19:50:35;102446.06;;;11.77;85.42
39823;BME280;25499;53.958;10.970;2022-09-21T19:53:01;102439.97;;;11.77;84.72
